Time;durP1;ratioP1;P1;durP2;ratioP2;P2;SDS_P1;SDS_P2;PMS_P1;PMS_P2;Temp;Humidity;BMP_temperature;BMP_pressure;BME280_temperature;BME280_humidity;BME280_pressure;Samples;Min_cycle;Max_cycle;Signal;HPM_P1;HPM_P2
2022/05/27 00:02:16;;;;;;;;;;;;;;;;;;4997946;28;20274;-31
2022/05/27 00:04:42;;;;;;;;;;;;;;;;;;4998741;28;19913;-32
2022/05/27 00:07:08;;;;;;;;;;;;;;;;;;4998154;28;19913;-32
2022/05/27 00:09:34;;;;;;;;;;;;;;;;;;4998263;28;20350;-32
2022/05/27 00:12:00;;;;;;;;;;;;;;;;;;4997928;28;19919;-32
2022/05/27 00:14:26;;;;;;;;;;;;;;;;;;4998198;28;20062;-31
2022/05/27 00:16:52;;;;;;;;;;;;;;;;;;4998241;28;19917;-33
2022/05/27 00:19:19;;;;;;;;;;;;;;;;;;4998165;28;20009;-32
2022/05/27 00:21:45;;;;;;;;;;;;;;;;;;4998055;28;20228;-32
2022/05/27 00:24:11;;;;;;;;;;;;;;;;;;4997803;28;19968;-31
2022/05/27 00:26:37;;;;;;;;;;;;;;;;;;4997754;28;19967;-32
2022/05/27 00:29:02;;;;;;;;;;;;;;;;;;4998183;28;19914;-32
2022/05/27 00:31:28;;;;;;;;;;;;;;;;;;4997582;28;19913;-32
2022/05/27 00:33:55;;;;;;;;;;;;;;;;;;4997558;28;19948;-31
2022/05/27 00:36:21;;;;;;;;;;;;;;;;;;4997489;28;19921;-33
2022/05/27 00:38:47;;;;;;;;;;;;;;;;;;4998099;28;19944;-32
2022/05/27 00:41:13;;;;;;;;;;;;;;;;;;4997500;28;20003;-32
2022/05/27 00:43:39;;;;;;;;;;;;;;;;;;4997519;28;19937;-32
2022/05/27 00:46:05;;;;;;;;;;;;;;;;;;4997423;28;20386;-31
2022/05/27 00:48:31;;;;;;;;;;;;;;;;;;4997312;28;19914;-31
2022/05/27 00:51:00;;;;;;;;;;;;;;;;;;4997310;28;19917;-31
2022/05/27 00:53:26;;;;;;;;;;;;;;;;;;4996062;28;19910;-32
2022/05/27 00:55:52;;;;;;;;;;;;;;;;;;4997502;28;19909;-32
2022/05/27 00:58:18;;;;;;;;;;;;;;;;;;4997201;28;19920;-32
2022/05/27 01:00:44;;;;;;;;;;;;;;;;;;4997108;28;19921;-32
2022/05/27 01:03:10;;;;;;;;;;;;;;;;;;4996802;28;19917;-32
2022/05/27 01:05:36;;;;;;;;;;;;;;;;;;4996944;28;19921;-31
2022/05/27 01:08:02;;;;;;;;;;;;;;;;;;4996952;28;19914;-32
2022/05/27 01:10:28;;;;;;;;;;;;;;;;;;4996930;28;19910;-32
2022/05/27 01:12:54;;;;;;;;;;;;;;;;;;4996833;28;19905;-32
2022/05/27 01:15:19;;;;;;;;;;;;;;;;;;4997373;28;20008;-32
2022/05/27 01:17:45;;;;;;;;;;;;;;;;;;4997120;28;19906;-32
2022/05/27 01:20:21;;;;;;;;;;;;;;;;;;4997018;28;19910;-33
2022/05/27 01:22:47;;;;;;;;;;;;;;;;;;4996553;28;19905;-31
2022/05/27 01:25:13;;;;;;;;;;;;;;;;;;4996563;28;19910;-32
2022/05/27 01:27:39;;;;;;;;;;;;;;;;;;4996850;28;19906;-32
2022/05/27 01:30:05;;;;;;;;;;;;;;;;;;4996606;28;19956;-32
2022/05/27 01:32:31;;;;;;;;;;;;;;;;;;4997017;28;19909;-32
2022/05/27 01:34:57;;;;;;;;;;;;;;;;;;4996373;28;20339;-31
2022/05/27 01:37:23;;;;;;;;;;;;;;;;;;4996996;28;19906;-31
2022/05/27 01:39:49;;;;;;;;;;;;;;;;;;4996635;28;20354;-31
2022/05/27 01:42:15;;;;;;;;;;;;;;;;;;4996256;28;19905;-33
2022/05/27 01:44:41;;;;;;;;;;;;;;;;;;4996318;28;20274;-31
2022/05/27 01:47:07;;;;;;;;;;;;;;;;;;4996240;28;19910;-30
2022/05/27 01:49:33;;;;;;;;;;;;;;;;;;4996684;28;19921;-31
2022/05/27 01:51:59;;;;;;;;;;;;;;;;;;4996103;28;19972;-32
2022/05/27 01:54:25;;;;;;;;;;;;;;;;;;4996047;28;19913;-31
2022/05/27 01:56:51;;;;;;;;;;;;;;;;;;4996109;28;19964;-31
2022/05/27 01:59:17;;;;;;;;;;;;;;;;;;4996349;28;20263;-31
2022/05/27 02:01:43;;;;;;;;;;;;;;;;;;4995927;28;19952;-31
2022/05/27 02:04:09;;;;;;;;;;;;;;;;;;4995539;28;19952;-31
2022/05/27 02:06:35;;;;;;;;;;;;;;;;;;4996207;28;20255;-31
2022/05/27 02:09:03;;;;;;;;;;;;;;;;;;4995828;28;19941;-32
2022/05/27 02:11:30;;;;;;;;;;;;;;;;;;4995843;28;19906;-32
2022/05/27 02:13:56;;;;;;;;;;;;;;;;;;4995822;28;19910;-32
2022/05/27 02:16:22;;;;;;;;;;;;;;;;;;4996365;28;19914;-33
2022/05/27 02:18:48;;;;;;;;;;;;;;;;;;4996380;28;19906;-31
2022/05/27 02:21:14;;;;;;;;;;;;;;;;;;4995727;28;19909;-32
2022/05/27 02:23:40;;;;;;;;;;;;;;;;;;4995678;28;19917;-32
2022/05/27 02:26:06;;;;;;;;;;;;;;;;;;4995690;28;19906;-32
2022/05/27 02:28:32;;;;;;;;;;;;;;;;;;4996131;28;19957;-31
2022/05/27 02:30:58;;;;;;;;;;;;;;;;;;4995907;28;20382;-31
2022/05/27 02:36:09;;;;;;;;;;;;;;;;;;4995994;28;19981;-31
2022/05/27 02:38:35;;;;;;;;;;;;;;;;;;4995848;28;19910;-32
2022/05/27 02:41:01;;;;;;;;;;;;;;;;;;4995582;28;20350;-32
2022/05/27 02:43:27;;;;;;;;;;;;;;;;;;4995755;28;19956;-31
2022/05/27 02:45:53;;;;;;;;;;;;;;;;;;4996339;28;19941;-31
2022/05/27 02:48:19;;;;;;;;;;;;;;;;;;4995428;28;19973;-32
2022/05/27 02:50:45;;;;;;;;;;;;;;;;;;4996012;28;19910;-32
2022/05/27 02:53:11;;;;;;;;;;;;;;;;;;4995469;28;19964;-32
2022/05/27 02:55:37;;;;;;;;;;;;;;;;;;4995439;28;19910;-31
2022/05/27 02:58:03;;;;;;;;;;;;;;;;;;4995437;28;19905;-32
2022/05/27 03:00:29;;;;;;;;;;;;;;;;;;4995411;28;19918;-34
2022/05/27 03:02:59;;;;;;;;;;;;;;;;;;4995437;28;19917;-33
2022/05/27 03:05:25;;;;;;;;;;;;;;;;;;4995569;28;19913;-32
2022/05/27 03:07:51;;;;;;;;;;;;;;;;;;4995288;28;19913;-30
2022/05/27 03:10:17;;;;;;;;;;;;;;;;;;4995229;28;19921;-32
2022/05/27 03:12:43;;;;;;;;;;;;;;;;;;4995173;28;19906;-31
2022/05/27 03:15:09;;;;;;;;;;;;;;;;;;4995271;28;19976;-31
2022/05/27 03:17:35;;;;;;;;;;;;;;;;;;4998165;28;19905;-30
2022/05/27 03:20:01;;;;;;;;;;;;;;;;;;4999510;28;19956;-31
2022/05/27 03:22:27;;;;;;;;;;;;;;;;;;4998900;28;19937;-31
2022/05/27 03:24:53;;;;;;;;;;;;;;;;;;4998875;28;19943;-32
2022/05/27 03:27:19;;;;;;;;;;;;;;;;;;4999152;28;19913;-32
2022/05/27 03:29:45;;;;;;;;;;;;;;;;;;4998973;28;19914;-30
2022/05/27 03:32:11;;;;;;;;;;;;;;;;;;4999145;28;19906;-32
2022/05/27 03:34:37;;;;;;;;;;;;;;;;;;4999238;28;19940;-31
2022/05/27 03:37:03;;;;;;;;;;;;;;;;;;4999193;28;19906;-32
2022/05/27 03:39:29;;;;;;;;;;;;;;;;;;4998640;28;19947;-32
2022/05/27 03:41:55;;;;;;;;;;;;;;;;;;4998511;28;19996;-31
2022/05/27 03:44:22;;;;;;;;;;;;;;;;;;4999128;28;19917;-33
2022/05/27 03:46:48;;;;;;;;;;;;;;;;;;4998408;28;19938;-32
2022/05/27 03:49:14;;;;;;;;;;;;;;;;;;4998954;28;19909;-30
2022/05/27 03:51:40;;;;;;;;;;;;;;;;;;4998578;28;19946;-31
2022/05/27 03:54:06;;;;;;;;;;;;;;;;;;4998616;28;20250;-31
2022/05/27 03:56:32;;;;;;;;;;;;;;;;;;4998594;28;19936;-33
2022/05/27 03:58:58;;;;;;;;;;;;;;;;;;4998184;28;19917;-32
2022/05/27 04:01:25;;;;;;;;;;;;;;;;;;4998214;28;19910;-33
2022/05/27 04:03:51;;;;;;;;;;;;;;;;;;4997890;28;19917;-33
2022/05/27 04:06:17;;;;;;;;;;;;;;;;;;4998626;28;20216;-32
2022/05/27 04:08:43;;;;;;;;;;;;;;;;;;4998135;28;19913;-31
2022/05/27 04:11:09;;;;;;;;;;;;;;;;;;4997734;28;19928;-34
2022/05/27 04:13:35;;;;;;;;;;;;;;;;;;4997688;28;19920;-33
2022/05/27 04:16:01;;;;;;;;;;;;;;;;;;4997674;28;19964;-33
2022/05/27 04:18:27;;;;;;;;;;;;;;;;;;4997577;28;19917;-33
2022/05/27 04:20:53;;;;;;;;;;;;;;;;;;4997631;28;19906;-32
2022/05/27 04:23:19;;;;;;;;;;;;;;;;;;4980561;28;19976;-33
2022/05/27 04:25:45;;;;;;;;;;;;;;;;;;4997662;28;19914;-30
2022/05/27 04:28:11;;;;;;;;;;;;;;;;;;4997534;28;19910;-31
2022/05/27 04:30:37;;;;;;;;;;;;;;;;;;4997442;28;19920;-32
2022/05/27 04:33:03;;;;;;;;;;;;;;;;;;4997527;28;19996;-34
2022/05/27 04:35:29;;;;;;;;;;;;;;;;;;4997870;28;19910;-33
2022/05/27 04:37:55;;;;;;;;;;;;;;;;;;4997533;28;20358;-32
2022/05/27 04:40:21;;;;;;;;;;;;;;;;;;4997713;28;19910;-32
2022/05/27 04:42:47;;;;;;;;;;;;;;;;;;4997336;28;20351;-32
2022/05/27 04:45:13;;;;;;;;;;;;;;;;;;4997316;28;19909;-31
2022/05/27 04:47:39;;;;;;;;;;;;;;;;;;4997481;28;20342;-32
2022/05/27 04:50:05;;;;;;;;;;;;;;;;;;4997220;28;19906;-32
2022/05/27 04:52:31;;;;;;;;;;;;;;;;;;4997030;28;20024;-32
2022/05/27 04:54:58;;;;;;;;;;;;;;;;;;4997031;28;19968;-32
2022/05/27 04:57:23;;;;;;;;;;;;;;;;;;4997549;28;19921;-31
2022/05/27 04:59:49;;;;;;;;;;;;;;;;;;4997508;28;19905;-33
2022/05/27 05:02:15;;;;;;;;;;;;;;;;;;4996684;28;20000;-32
2022/05/27 05:04:41;;;;;;;;;;;;;;;;;;4997558;28;20331;-32
2022/05/27 05:07:08;;;;;;;;;;;;;;;;;;4996931;28;20410;-34
2022/05/27 05:09:34;;;;;;;;;;;;;;;;;;4996751;28;19972;-32
2022/05/27 05:12:00;;;;;;;;;;;;;;;;;;4996693;28;19910;-32
2022/05/27 05:14:26;;;;;;;;;;;;;;;;;;4996824;28;19906;-34
2022/05/27 05:16:52;;;;;;;;;;;;;;;;;;4997212;28;20074;-33
2022/05/27 05:19:18;;;;;;;;;;;;;;;;;;4996741;28;19906;-32
2022/05/27 05:21:44;;;;;;;;;;;;;;;;;;4996508;28;19983;-33
2022/05/27 05:24:11;;;;;;;;;;;;;;;;;;4996590;28;20416;-32
2022/05/27 05:26:37;;;;;;;;;;;;;;;;;;4996500;28;19909;-32
2022/05/27 05:29:04;;;;;;;;;;;;;;;;;;4996454;28;19913;-31
2022/05/27 05:31:30;;;;;;;;;;;;;;;;;;4996973;28;19952;-30
2022/05/27 05:33:59;;;;;;;;;;;;;;;;;;4979246;28;19976;-32
2022/05/27 05:36:25;;;;;;;;;;;;;;;;;;4996314;28;19910;-32
2022/05/27 05:38:51;;;;;;;;;;;;;;;;;;4995509;28;20346;-31
2022/05/27 05:41:17;;;;;;;;;;;;;;;;;;4996422;28;19961;-32
2022/05/27 05:43:43;;;;;;;;;;;;;;;;;;4996382;28;19910;-32
2022/05/27 05:46:09;;;;;;;;;;;;;;;;;;4996195;28;19906;-33
2022/05/27 05:48:35;;;;;;;;;;;;;;;;;;4996310;28;20338;-32
2022/05/27 05:51:01;;;;;;;;;;;;;;;;;;4996645;28;19905;-32
2022/05/27 05:53:27;;;;;;;;;;;;;;;;;;4996324;28;20254;-34
2022/05/27 05:55:53;;;;;;;;;;;;;;;;;;4996232;28;19909;-31
2022/05/27 05:58:19;;;;;;;;;;;;;;;;;;4995933;28;19905;-32
2022/05/27 06:00:46;;;;;;;;;;;;;;;;;;4996471;28;19968;-32
2022/05/27 06:03:12;;;;;;;;;;;;;;;;;;4995567;28;19961;-31
2022/05/27 06:05:41;;;;;;;;;;;;;;;;;;4995732;28;19972;-32
2022/05/27 06:08:07;;;;;;;;;;;;;;;;;;4995968;28;19909;-31
2022/05/27 06:10:33;;;;;;;;;;;;;;;;;;4996233;28;19910;-32
2022/05/27 06:12:59;;;;;;;;;;;;;;;;;;4996146;28;19909;-32
2022/05/27 06:15:25;;;;;;;;;;;;;;;;;;4995634;28;19996;-33
2022/05/27 06:17:51;;;;;;;;;;;;;;;;;;4995672;28;19920;-32
2022/05/27 06:20:17;;;;;;;;;;;;;;;;;;4995978;28;20361;-33
2022/05/27 06:22:43;;;;;;;;;;;;;;;;;;4995589;28;19910;-32
2022/05/27 06:25:09;;;;;;;;;;;;;;;;;;4996127;28;19956;-33
2022/05/27 06:27:35;;;;;;;;;;;;;;;;;;4995563;28;19910;-32
2022/05/27 06:35:46;;;;;;;;;;;;;;;;;;4989179;28;20012;-32
2022/05/27 06:38:12;;;;;;;;;;;;;;;;;;4995455;28;20347;-31
2022/05/27 06:40:38;;;;;;;;;;;;;;;;;;4995870;28;19910;-33
2022/05/27 06:43:04;;;;;;;;;;;;;;;;;;4995462;28;19916;-33
2022/05/27 06:45:30;;;;;;;;;;;;;;;;;;4995963;28;19910;-34
2022/05/27 06:47:56;;;;;;;;;;;;;;;;;;4995843;28;20242;-34
2022/05/27 06:50:22;;;;;;;;;;;;;;;;;;4996343;28;19913;-33
2022/05/27 06:52:50;;;;;;;;;;;;;;;;;;4999261;28;19917;-34
2022/05/27 06:55:17;;;;;;;;;;;;;;;;;;4999165;28;19916;-33
2022/05/27 06:57:43;;;;;;;;;;;;;;;;;;4999434;28;20276;-35
2022/05/27 07:00:09;;;;;;;;;;;;;;;;;;4999211;28;19936;-33
2022/05/27 07:02:35;;;;;;;;;;;;;;;;;;4999355;28;19976;-31
2022/05/27 07:05:01;;;;;;;;;;;;;;;;;;4999096;28;19929;-31
2022/05/27 07:07:27;;;;;;;;;;;;;;;;;;4999318;28;19906;-32
2022/05/27 07:09:53;;;;;;;;;;;;;;;;;;4981754;28;20335;-31
2022/05/27 07:12:19;;;;;;;;;;;;;;;;;;4999361;28;19909;-33
2022/05/27 07:14:45;;;;;;;;;;;;;;;;;;4998860;28;19906;-32
2022/05/27 07:17:11;;;;;;;;;;;;;;;;;;4999379;28;19909;-31
2022/05/27 07:19:37;;;;;;;;;;;;;;;;;;4998973;28;20253;-32
2022/05/27 07:22:03;;;;;;;;;;;;;;;;;;4998825;28;19910;-32
2022/05/27 07:24:29;;;;;;;;;;;;;;;;;;4999302;28;19956;-32
2022/05/27 07:26:55;;;;;;;;;;;;;;;;;;4998738;28;19964;-33
2022/05/27 07:29:21;;;;;;;;;;;;;;;;;;4999001;28;19918;-32
2022/05/27 07:31:47;;;;;;;;;;;;;;;;;;4998903;28;19916;-34
2022/05/27 07:34:13;;;;;;;;;;;;;;;;;;4998693;28;19906;-33
2022/05/27 07:36:39;;;;;;;;;;;;;;;;;;4998601;28;20358;-32
2022/05/27 07:39:05;;;;;;;;;;;;;;;;;;4999142;28;19906;-32
2022/05/27 07:41:31;;;;;;;;;;;;;;;;;;4998769;28;20251;-33
2022/05/27 07:43:59;;;;;;;;;;;;;;;;;;4999007;28;19917;-34
2022/05/27 07:46:25;;;;;;;;;;;;;;;;;;4998363;28;19980;-31
2022/05/27 07:48:51;;;;;;;;;;;;;;;;;;4998866;28;19913;-31
2022/05/27 07:51:17;;;;;;;;;;;;;;;;;;4998803;28;19921;-31
2022/05/27 07:53:43;;;;;;;;;;;;;;;;;;4998480;28;19909;-34
2022/05/27 07:56:09;;;;;;;;;;;;;;;;;;4998134;28;20366;-32
2022/05/27 07:58:35;;;;;;;;;;;;;;;;;;4998141;28;19906;-31
2022/05/27 08:01:01;;;;;;;;;;;;;;;;;;4998042;28;20004;-33
2022/05/27 08:03:28;;;;;;;;;;;;;;;;;;4976803;28;19950;-32
2022/05/27 08:05:55;;;;;;;;;;;;;;;;;;4978895;28;20259;-34
2022/05/27 08:08:21;;;;;;;;;;;;;;;;;;4978470;28;19914;-33
2022/05/27 08:10:47;;;;;;;;;;;;;;;;;;4978762;28;19906;-32
2022/05/27 08:13:13;;;;;;;;;;;;;;;;;;4978690;28;20286;-33
2022/05/27 08:15:39;;;;;;;;;;;;;;;;;;4979052;28;19994;-33
2022/05/27 08:18:06;;;;;;;;;;;;;;;;;;4978331;28;19960;-31
2022/05/27 08:20:32;;;;;;;;;;;;;;;;;;4979205;28;20008;-34
2022/05/27 08:22:58;;;;;;;;;;;;;;;;;;4978289;28;19906;-33
2022/05/27 08:25:24;;;;;;;;;;;;;;;;;;4978228;28;19918;-31
2022/05/27 08:27:50;;;;;;;;;;;;;;;;;;4978089;28;19917;-32
2022/05/27 08:30:16;;;;;;;;;;;;;;;;;;4977998;28;20262;-33
2022/05/27 08:32:42;;;;;;;;;;;;;;;;;;4978366;28;19910;-33
2022/05/27 08:38:05;;;;;;;;;;;;;;;;;;4978140;28;20255;-33
2022/05/27 08:40:31;;;;;;;;;;;;;;;;;;4978047;28;19917;-30
2022/05/27 08:42:57;;;;;;;;;;;;;;;;;;4977947;28;20451;-32
2022/05/27 08:45:23;;;;;;;;;;;;;;;;;;4977962;28;19921;-31
2022/05/27 08:47:49;;;;;;;;;;;;;;;;;;4977845;28;19997;-32
2022/05/27 08:50:15;;;;;;;;;;;;;;;;;;4978360;28;19910;-31
2022/05/27 08:52:42;;;;;;;;;;;;;;;;;;4977700;28;19961;-32
2022/05/27 08:59:26;;;;;;;;;;;;;;;;;;4977677;28;19910;-31
2022/05/27 09:00:38;;;;;;;;;;;;;;;;;;4977983;28;19964;-33
2022/05/27 09:03:04;;;;;;;;;;;;;;;;;;4985794;28;19918;-34
2022/05/27 09:05:30;;;;;;;;;;;;;;;;;;4997251;28;19910;-33
2022/05/27 09:07:56;;;;;;;;;;;;;;;;;;4997456;28;20366;-33
2022/05/27 09:10:22;;;;;;;;;;;;;;;;;;4996927;28;19955;-31
2022/05/27 09:12:48;;;;;;;;;;;;;;;;;;4997009;28;19941;-32
2022/05/27 09:15:14;;;;;;;;;;;;;;;;;;4996093;28;19917;-31
2022/05/27 09:17:40;;;;;;;;;;;;;;;;;;4997064;28;19905;-31
2022/05/27 09:20:06;;;;;;;;;;;;;;;;;;4997038;28;20241;-33
2022/05/27 09:22:32;;;;;;;;;;;;;;;;;;4996701;28;19913;-32
2022/05/27 09:24:58;;;;;;;;;;;;;;;;;;4996873;28;20004;-32
2022/05/27 09:27:24;;;;;;;;;;;;;;;;;;4996518;28;19913;-32
2022/05/27 09:29:50;;;;;;;;;;;;;;;;;;4996296;28;19940;-33
2022/05/27 09:32:16;;;;;;;;;;;;;;;;;;4979080;28;20343;-32
2022/05/27 09:34:42;;;;;;;;;;;;;;;;;;4996336;28;19913;-32
2022/05/27 09:37:08;;;;;;;;;;;;;;;;;;4996534;28;20335;-32
2022/05/27 09:39:34;;;;;;;;;;;;;;;;;;4996492;28;19995;-31
2022/05/27 09:42:00;;;;;;;;;;;;;;;;;;4996338;28;19905;-33
2022/05/27 09:44:27;;;;;;;;;;;;;;;;;;4996339;28;20394;-32
2022/05/27 09:47:01;;;;;;;;;;;;;;;;;;5113670;27;19912;-32
2022/05/27 09:49:27;;;;;;;;;;;;;;;;;;5111847;28;19912;-32
2022/05/27 09:51:53;;;;;;;;;;;;;;;;;;5112957;28;20007;-33
2022/05/27 09:54:19;;;;;;;;;;;;;;;;;;5113073;28;19912;-31
2022/05/27 09:56:45;;;;;;;;;;;;;;;;;;5113283;28;19908;-31
2022/05/27 09:59:12;;;;;;;;;;;;;;;;;;5112624;28;19939;-32
2022/05/27 10:01:40;;;;;;;;;;;;;;;;;;5112893;28;19912;-34
2022/05/27 10:04:09;;;;;;;;;;;;;;;;;;5112549;28;19912;-31
2022/05/27 10:06:35;;;;;;;;;;;;;;;;;;5113029;28;20030;-31
2022/05/27 10:09:01;;;;;;;;;;;;;;;;;;5112404;28;19912;-33
2022/05/27 10:11:27;;;;;;;;;;;;;;;;;;5112374;28;20307;-30
2022/05/27 10:13:53;;;;;;;;;;;;;;;;;;5112603;28;20273;-30
2022/05/27 10:16:19;;;;;;;;;;;;;;;;;;5112614;28;19912;-32
2022/05/27 10:18:45;;;;;;;;;;;;;;;;;;5112444;28;20398;-30
2022/05/27 10:21:11;;;;;;;;;;;;;;;;;;5112902;28;19912;-30
2022/05/27 10:23:37;;;;;;;;;;;;;;;;;;5112374;28;19912;-32
2022/05/27 10:26:03;;;;;;;;;;;;;;;;;;5112256;28;19912;-31
2022/05/27 10:28:29;;;;;;;;;;;;;;;;;;5112449;28;19923;-32
2022/05/27 10:30:55;;;;;;;;;;;;;;;;;;5112400;28;19912;-31
2022/05/27 10:33:21;;;;;;;;;;;;;;;;;;5112063;28;19919;-31
2022/05/27 10:35:47;;;;;;;;;;;;;;;;;;5111974;28;20351;-31
2022/05/27 10:38:13;;;;;;;;;;;;;;;;;;5111935;28;19908;-30
2022/05/27 10:40:39;;;;;;;;;;;;;;;;;;5111883;28;19950;-31
2022/05/27 10:43:05;;;;;;;;;;;;;;;;;;5111834;28;19908;-28
2022/05/27 10:45:31;;;;;;;;;;;;;;;;;;5111933;28;19924;-29
2022/05/27 10:47:57;;;;;;;;;;;;;;;;;;5111817;28;19931;-30
2022/05/27 10:50:23;;;;;;;;;;;;;;;;;;5111659;28;19951;-31
2022/05/27 10:52:49;;;;;;;;;;;;;;;;;;5112262;28;20354;-29
2022/05/27 10:55:15;;;;;;;;;;;;;;;;;;5111712;28;19920;-29
2022/05/27 11:03:11;;;;;;;;;;;;;;;;;;5098008;28;19919;-28
2022/05/27 11:05:37;;;;;;;;;;;;;;;;;;5097784;28;19927;-30
2022/05/27 11:08:04;;;;;;;;;;;;;;;;;;5098117;28;19916;-29
2022/05/27 11:10:29;;;;;;;;;;;;;;;;;;5098281;28;19999;-30
2022/05/27 11:15:40;;;;;;;;;;;;;;;;;;5097788;28;19986;-29
2022/05/27 11:18:06;;;;;;;;;;;;;;;;;;5097768;28;19908;-29
2022/05/27 11:20:32;;;;;;;;;;;;;;;;;;5097588;28;19969;-27
2022/05/27 11:22:59;;;;;;;;;;;;;;;;;;5097832;28;19939;-31
2022/05/27 11:25:24;;;;;;;;;;;;;;;;;;5097687;28;19916;-30
2022/05/27 11:27:50;;;;;;;;;;;;;;;;;;5097471;28;19919;-29
2022/05/27 11:30:16;;;;;;;;;;;;;;;;;;5096497;28;19968;-29
2022/05/27 11:32:42;;;;;;;;;;;;;;;;;;5097623;28;20339;-30
2022/05/27 11:35:08;;;;;;;;;;;;;;;;;;5097658;28;19919;-30
2022/05/27 11:37:34;;;;;;;;;;;;;;;;;;5097336;28;19919;-30
2022/05/27 11:40:00;;;;;;;;;;;;;;;;;;5097730;28;19920;-31
2022/05/27 11:42:26;;;;;;;;;;;;;;;;;;5097164;28;20289;-29
2022/05/27 11:44:52;;;;;;;;;;;;;;;;;;5097257;28;19931;-30
2022/05/27 11:47:18;;;;;;;;;;;;;;;;;;5097370;28;19912;-28
2022/05/27 11:49:44;;;;;;;;;;;;;;;;;;5097269;28;19918;-32
2022/05/27 11:52:10;;;;;;;;;;;;;;;;;;5096898;28;20299;-28
2022/05/27 11:54:36;;;;;;;;;;;;;;;;;;5096872;28;20303;-30
2022/05/27 11:57:02;;;;;;;;;;;;;;;;;;5096965;28;19955;-32
2022/05/27 11:59:28;;;;;;;;;;;;;;;;;;5096889;28;20356;-29
2022/05/27 12:01:55;;;;;;;;;;;;;;;;;;5097307;28;19968;-31
2022/05/27 12:04:20;;;;;;;;;;;;;;;;;;5097055;28;19922;-31
2022/05/27 12:06:46;;;;;;;;;;;;;;;;;;5096536;28;20331;-35
2022/05/27 12:09:12;;;;;;;;;;;;;;;;;;5095638;28;19947;-29
2022/05/27 12:11:38;;;;;;;;;;;;;;;;;;5096822;28;20220;-29
2022/05/27 12:14:04;;;;;;;;;;;;;;;;;;5096733;28;19916;-29
2022/05/27 12:16:31;;;;;;;;;;;;;;;;;;5096790;28;19923;-30
2022/05/27 12:18:57;;;;;;;;;;;;;;;;;;5096971;28;19916;-29
2022/05/27 12:21:24;;;;;;;;;;;;;;;;;;5096710;28;19908;-29
2022/05/27 12:23:50;;;;;;;;;;;;;;;;;;5096259;28;19950;-28
2022/05/27 12:26:16;;;;;;;;;;;;;;;;;;5096181;28;20002;-29
2022/05/27 12:28:42;;;;;;;;;;;;;;;;;;5096277;28;19985;-30
2022/05/27 12:31:08;;;;;;;;;;;;;;;;;;5096431;28;19908;-29
2022/05/27 12:33:34;;;;;;;;;;;;;;;;;;5096013;28;19912;-30
2022/05/27 12:36:00;;;;;;;;;;;;;;;;;;5096281;28;20339;-29
2022/05/27 12:38:26;;;;;;;;;;;;;;;;;;5096013;28;19916;-31
2022/05/27 12:40:52;;;;;;;;;;;;;;;;;;5096050;28;19920;-28
2022/05/27 12:43:18;;;;;;;;;;;;;;;;;;5096135;28;20061;-30
2022/05/27 12:45:44;;;;;;;;;;;;;;;;;;5096381;28;19931;-30
2022/05/27 12:48:10;;;;;;;;;;;;;;;;;;5094952;28;19912;-30
2022/05/27 12:50:36;;;;;;;;;;;;;;;;;;5095840;28;19912;-29
2022/05/27 12:53:02;;;;;;;;;;;;;;;;;;5095744;28;20331;-30
2022/05/27 12:55:28;;;;;;;;;;;;;;;;;;5095963;28;19912;-31
2022/05/27 13:00:57;;;;;;;;;;;;;;;;;;5096004;28;19974;-30
2022/05/27 13:03:23;;;;;;;;;;;;;;;;;;5095627;28;19908;-30
2022/05/27 13:05:51;;;;;;;;;;;;;;;;;;5095448;28;19916;-31
2022/05/27 13:08:17;;;;;;;;;;;;;;;;;;5095734;28;19943;-29
2022/05/27 13:10:43;;;;;;;;;;;;;;;;;;5096038;28;19916;-29
2022/05/27 13:13:10;;;;;;;;;;;;;;;;;;5095454;28;19983;-32
2022/05/27 13:15:36;;;;;;;;;;;;;;;;;;5095717;28;20331;-29
2022/05/27 13:18:02;;;;;;;;;;;;;;;;;;5095725;28;19912;-30
2022/05/27 13:20:28;;;;;;;;;;;;;;;;;;5095640;28;19912;-28
2022/05/27 13:22:54;;;;;;;;;;;;;;;;;;5095569;28;19919;-31
2022/05/27 13:25:20;;;;;;;;;;;;;;;;;;5094253;28;20357;-32
2022/05/27 13:27:47;;;;;;;;;;;;;;;;;;5095256;28;19908;-30
2022/05/27 13:30:13;;;;;;;;;;;;;;;;;;5095312;28;19913;-29
2022/05/27 13:32:39;;;;;;;;;;;;;;;;;;5095516;28;20006;-31
2022/05/27 13:35:05;;;;;;;;;;;;;;;;;;5095139;28;19912;-32
2022/05/27 13:37:31;;;;;;;;;;;;;;;;;;5095193;28;19908;-30
2022/05/27 13:39:57;;;;;;;;;;;;;;;;;;5095200;28;19989;-29
2022/05/27 13:42:23;;;;;;;;;;;;;;;;;;5095635;28;19912;-29
2022/05/27 13:44:49;;;;;;;;;;;;;;;;;;5094872;28;19916;-29
2022/05/27 13:47:15;;;;;;;;;;;;;;;;;;5095104;28;20243;-30
2022/05/27 13:49:41;;;;;;;;;;;;;;;;;;5095626;28;19919;-31
2022/05/27 13:52:07;;;;;;;;;;;;;;;;;;5095221;28;19908;-30
2022/05/27 13:54:33;;;;;;;;;;;;;;;;;;5095271;28;20360;-30
2022/05/27 13:56:59;;;;;;;;;;;;;;;;;;5094986;28;19912;-31
2022/05/27 13:59:26;;;;;;;;;;;;;;;;;;5095152;28;19992;-34
2022/05/27 14:01:54;;;;;;;;;;;;;;;;;;5095006;28;19912;-29
2022/05/27 14:04:20;;;;;;;;;;;;;;;;;;5095258;28;19912;-29
2022/05/27 14:06:46;;;;;;;;;;;;;;;;;;5095123;28;20306;-31
2022/05/27 14:09:12;;;;;;;;;;;;;;;;;;5094883;28;20359;-31
2022/05/27 14:11:38;;;;;;;;;;;;;;;;;;5094867;28;19913;-32
2022/05/27 14:14:04;;;;;;;;;;;;;;;;;;5094738;28;19916;-33
2022/05/27 14:16:30;;;;;;;;;;;;;;;;;;5095328;28;19912;-32
2022/05/27 14:18:57;;;;;;;;;;;;;;;;;;5094957;28;20227;-29
2022/05/27 14:24:08;;;;;;;;;;;;;;;;;;5094735;28;19919;-30
2022/05/27 14:26:34;;;;;;;;;;;;;;;;;;5094732;28;20331;-30
2022/05/27 14:29:01;;;;;;;;;;;;;;;;;;5094867;28;19919;-32
2022/05/27 14:31:27;;;;;;;;;;;;;;;;;;5094631;28;19943;-32
2022/05/27 14:33:53;;;;;;;;;;;;;;;;;;5099012;28;19969;-30
2022/05/27 14:36:19;;;;;;;;;;;;;;;;;;5098797;28;19916;-30
2022/05/27 14:38:45;;;;;;;;;;;;;;;;;;5098714;28;20262;-34
2022/05/27 14:41:11;;;;;;;;;;;;;;;;;;5098213;28;19913;-32
2022/05/27 14:43:37;;;;;;;;;;;;;;;;;;5098348;28;19977;-30
2022/05/27 14:46:03;;;;;;;;;;;;;;;;;;5097872;28;20014;-30
2022/05/27 14:48:29;;;;;;;;;;;;;;;;;;5098059;28;19958;-31
2022/05/27 14:50:55;;;;;;;;;;;;;;;;;;5098043;28;19923;-32
2022/05/27 14:53:21;;;;;;;;;;;;;;;;;;5097937;28;20081;-32
2022/05/27 14:55:47;;;;;;;;;;;;;;;;;;5097977;28;19930;-32
2022/05/27 14:58:13;;;;;;;;;;;;;;;;;;5097823;28;19908;-36
2022/05/27 15:00:39;;;;;;;;;;;;;;;;;;5098084;28;19999;-32
2022/05/27 15:03:05;;;;;;;;;;;;;;;;;;5097909;28;19908;-30
2022/05/27 15:05:31;;;;;;;;;;;;;;;;;;5097599;28;19924;-32
2022/05/27 15:07:59;;;;;;;;;;;;;;;;;;5097697;28;19912;-32
2022/05/27 15:10:27;;;;;;;;;;;;;;;;;;5097994;28;19922;-30
2022/05/27 15:12:54;;;;;;;;;;;;;;;;;;5097938;28;19919;-31
2022/05/27 15:15:20;;;;;;;;;;;;;;;;;;5098092;28;19915;-30
2022/05/27 15:17:46;;;;;;;;;;;;;;;;;;5098124;28;19965;-32
2022/05/27 15:20:12;;;;;;;;;;;;;;;;;;5097478;28;19916;-31
2022/05/27 15:22:38;;;;;;;;;;;;;;;;;;5097407;28;19908;-30
2022/05/27 15:25:04;;;;;;;;;;;;;;;;;;5097939;28;19976;-31
2022/05/27 15:33:06;;;;;;;;;;;;;;;;;;5097446;28;19970;-28
2022/05/27 15:35:32;;;;;;;;;;;;;;;;;;5097227;28;19916;-33
2022/05/27 15:37:58;;;;;;;;;;;;;;;;;;5097183;28;19965;-30
2022/05/27 15:40:24;;;;;;;;;;;;;;;;;;5097087;28;19912;-32
2022/05/27 15:42:50;;;;;;;;;;;;;;;;;;5095781;28;20121;-30
2022/05/27 15:45:16;;;;;;;;;;;;;;;;;;5097029;28;20388;-33
2022/05/27 15:47:42;;;;;;;;;;;;;;;;;;5096943;28;19916;-30
2022/05/27 15:50:08;;;;;;;;;;;;;;;;;;5097489;28;19912;-31
2022/05/27 15:52:34;;;;;;;;;;;;;;;;;;5097285;28;19998;-34
2022/05/27 15:55:00;;;;;;;;;;;;;;;;;;5096889;28;19922;-30
2022/05/27 15:57:26;;;;;;;;;;;;;;;;;;5096841;28;19919;-31
2022/05/27 15:59:52;;;;;;;;;;;;;;;;;;5096698;28;19916;-33
2022/05/27 16:02:21;;;;;;;;;;;;;;;;;;5096642;28;19912;-31
2022/05/27 16:04:47;;;;;;;;;;;;;;;;;;5096625;28;20346;-30
2022/05/27 16:07:13;;;;;;;;;;;;;;;;;;5096586;28;20007;-31
2022/05/27 16:09:39;;;;;;;;;;;;;;;;;;5097086;28;19962;-31
2022/05/27 16:12:05;;;;;;;;;;;;;;;;;;5096411;28;19944;-31
2022/05/27 16:14:31;;;;;;;;;;;;;;;;;;5096674;28;19969;-32
2022/05/27 16:19:42;;;;;;;;;;;;;;;;;;5096386;28;19922;-31
2022/05/27 16:22:08;;;;;;;;;;;;;;;;;;5096556;28;19923;-31
2022/05/27 16:24:34;;;;;;;;;;;;;;;;;;5096487;28;19995;-30
2022/05/27 16:27:00;;;;;;;;;;;;;;;;;;5096675;28;19912;-29
2022/05/27 16:29:26;;;;;;;;;;;;;;;;;;5096648;28;19980;-31
2022/05/27 16:31:52;;;;;;;;;;;;;;;;;;5096531;28;20311;-30
2022/05/27 16:34:18;;;;;;;;;;;;;;;;;;5096030;28;19918;-33
2022/05/27 16:36:44;;;;;;;;;;;;;;;;;;5095960;28;20227;-30
2022/05/27 16:39:10;;;;;;;;;;;;;;;;;;5096019;28;19919;-30
2022/05/27 16:41:36;;;;;;;;;;;;;;;;;;5095889;28;19935;-31
2022/05/27 16:44:02;;;;;;;;;;;;;;;;;;5095833;28;20342;-31
2022/05/27 16:46:29;;;;;;;;;;;;;;;;;;5095582;28;19977;-30
2022/05/27 16:48:54;;;;;;;;;;;;;;;;;;5095859;28;19912;-30
2022/05/27 16:51:20;;;;;;;;;;;;;;;;;;5095705;28;19913;-31
2022/05/27 16:53:47;;;;;;;;;;;;;;;;;;5095817;28;19908;-31
2022/05/27 16:56:13;;;;;;;;;;;;;;;;;;5095136;28;19913;-31
2022/05/27 16:58:39;;;;;;;;;;;;;;;;;;5095887;28;19912;-31
2022/05/27 17:01:05;;;;;;;;;;;;;;;;;;5095754;28;19919;-33
2022/05/27 17:03:32;;;;;;;;;;;;;;;;;;5095460;28;19969;-30
2022/05/27 17:05:58;;;;;;;;;;;;;;;;;;5095622;28;19948;-30
2022/05/27 17:08:26;;;;;;;;;;;;;;;;;;5095644;28;19911;-33
2022/05/27 17:10:52;;;;;;;;;;;;;;;;;;5095854;28;19916;-30
2022/05/27 17:13:19;;;;;;;;;;;;;;;;;;5095385;28;20224;-30
2022/05/27 17:15:45;;;;;;;;;;;;;;;;;;5095720;28;19931;-31